Tiempo atmosférico en la estación meteorológica de Castuera , Badajoz (512 m.)



Fecha
DESCASC
Temp. máxima en grados centígrados (hora)
DESCASC
Temp. mínima en grados centígrados (hora)
DESCASC
Temp. media en grados centígrados
DESCASC
Racha de viento máxima en m/sg (hora)
DESCASC
Velocidad máxima media en intervalos de 10 minutos(hora)
DESCASC
Precipitaciones diarias en mm
DESCASC
Precipitaciones de 00:00 a 06:00 en mm
DESCASC
Precipitaciones de 06:00 a 12:00 en mm
DESCASC
Precipitaciones de 12:00 a 18:00 en mm
DESCASC
Precipitaciones de 18:00 a 24:00 en mm
DESCASC
25-04-2019 15 (17:20) 8.1 (05:50) 11.6 15 (01:00) 10.56 (01:00) 5.2 4.8 0.2 0.2 0
24-04-2019 16.2 (13:50) 5.6 (02:40) 10.9 21.11 (10:40) 14.72 (10:40) 3.6 0 0 0.2 3.4
23-04-2019 14.6 (00:00) 6 (21:30) 10.3 13.61 (15:50) 8.89 (15:50) 5.6 2.8 1.2 1 0.6
22-04-2019 21.7 (17:00) 9.5 (00:00) 15.6 11.39 (17:50) 7.22 (18:30) 0 0 0 0 0
21-04-2019 17.3 (16:30) 8.7 (00:00) 13 12.5 (01:10) 6.11 (00:50) 0 0 0 0 0
20-04-2019 13.5 (17:40) 8.8 (00:00) 11.2 18.61 (20:10) 10.83 (20:10) 9.6 0 3.8 5.8 0
19-04-2019 18.5 (15:30) 8.9 (00:00) 13.7 13.89 (19:40) 7.22 (20:00) 0.8 0 0 0.6 0.2
18-04-2019 17 (13:10) 9.7 (00:00) 13.3 13.06 (13:30) 6.11 (00:10) 2.4 0 0 2.4 0
17-04-2019 22.3 (15:50) 12.6 (00:00) 17.4 12.78 (17:40) 9.44 (17:40) 0 0 0 0 0
16-04-2019 25 (18:00) 9.6 (00:00) 17.3 10.56 (19:10) 6.11 (20:00) 0 0 0 0 0
15-04-2019 22.3 (15:00) 13.6 (00:00) 17.9 11.39 (16:40) 7.5 (17:30) 0 0 0 0 0
14-04-2019 23.4 (17:40) 12.2 (00:00) 17.8 5.56 (16:30) 3.89 (22:30) 0 0 0 0 0
13-04-2019 22.5 (17:10) 10 (00:00) 16.3 8.61 (19:00) 4.72 (18:50) 0 0 0 0 0
12-04-2019 20.3 (18:40) 8 (00:00) 14.1 5.83 (16:10) 3.89 (19:50) 0 0 0 0 0
11-04-2019 18.7 (17:20) 5.5 (00:00) 12.1 6.67 (16:50) 3.89 (19:00) 0 0 0 0 0
10-04-2019 16.4 (17:40) 6.6 (00:00) 11.5 11.39 (12:50) 6.94 (12:50) 0 0 0 0 0
09-04-2019 14.8 (16:50) 7 (00:00) 10.9 15.83 (11:40) 8.61 (14:00) 2 0 1.8 0.2 0
08-04-2019 16.2 (17:30) 8.1 (00:00) 12.2 11.11 (21:10) 7.5 (17:20) 2.6 1.2 1.4 0 0
07-04-2019 12.4 (18:50) 6.4 (00:00) 9.4 10.28 (03:00) 6.67 (03:00) 2.2 0.2 1.2 0.2 0.6
06-04-2019 11.7 (18:50) 5 (00:00) 8.3 17.5 (15:40) 8.89 (18:00) 6.8 0 0 1.2 5.6
05-04-2019 10.9 (16:10) 5.4 (00:00) 8.1 16.11 (16:30) 9.72 (16:30) 4 1.2 2.6 0 0.2
04-04-2019 16.6 (17:30) 3.1 (00:00) 9.9 8.89 (18:20) 6.11 (18:20) 0 0 0 0 0
03-04-2019 17 (18:30) 7.8 (00:00) 12.4 11.67 (15:50) 7.22 (15:20) 0 0 0 0 0
02-04-2019 19.6 (17:10) 9.3 (00:00) 14.5 6.39 (18:30) 4.44 (18:50) 0 0 0 0 0
01-04-2019 16.8 (14:50) 9.9 (00:00) 13.3 8.89 (15:40) 5.83 (15:40) 20.8 0 0 20.8 0
31-03-2019 17.8 (12:50) 10.9 (00:00) 14.3 8.06 (14:10) 4.72 (14:30) 6.6 0 0 6.6 0
30-03-2019 21.3 (17:10) 10 (00:00) 15.6 9.17 (04:00) 6.11 (04:00) 0 0 0 0 0
29-03-2019 21.5 (17:00) 6.2 (00:00) 13.8 9.72 (01:00) 6.11 (01:00) 0 0 0 0 0
28-03-2019 21.3 (18:00) 7.9 (00:00) 14.6 10.28 (15:20) 6.11 (01:00) 0 0 0 0 0
27-03-2019 19.7 (15:50) 6.7 (00:00) 13.2 13.33 (14:10) 6.94 (07:00) 0 0 0 0 0

Gráficas

Temp. máximas Temp. mínimas Temp. medias Precipitaciones Rachas de viento máximas Velocidades máximas media en intervalos de 10 minutos

Datos horarios

Fecha y hora oficial Temperatura (ºC) Velocidad del viento (km/h) Dirección del viento Racha (km/h) Dirección de racha Precipitación (mm) Presión (hPa) Tendencia (hPa) Humedad (%)
2019-04-25 23:00:00 10.2 9 Oeste 21 Noroeste 0 -- -- 75
2019-04-25 22:00:00 10.7 6 Norte 13 Norte 0 -- -- 76
2019-04-25 21:00:00 11.7 6 Noroeste 33 Oeste 0 -- -- 72
2019-04-25 20:00:00 13.1 22 Oeste 42 Oeste 0 -- -- 63
2019-04-25 19:00:00 13.3 21 Oeste 45 Sudoeste 0 -- -- 61
2019-04-25 18:00:00 12.8 26 Noroeste 48 Oeste 0 -- -- 69
2019-04-25 17:00:00 14.3 27 Oeste 47 Oeste 0 -- -- 60
2019-04-25 16:00:00 11.2 26 Oeste 50 Oeste 0 -- -- 75
2019-04-25 15:00:00 13.4 23 Oeste 47 Oeste 0.2 -- -- 69
2019-04-25 14:00:00 11.8 17 Oeste 44 Oeste 0 -- -- 77
2019-04-25 13:00:00 12.1 21 Oeste 35 Oeste 0 -- -- 67
2019-04-25 12:00:00 10.2 12 Oeste 39 Oeste 0 -- -- 83
2019-04-25 11:00:00 10.8 20 Oeste 35 Oeste 0 -- -- 77
2019-04-25 10:00:00 9.8 19 Oeste 31 Oeste 0 -- -- 86
2019-04-25 09:00:00 8.8 12 Sudoeste 26 Sudoeste 0.2 -- -- 92
2019-04-25 08:00:00 8.6 7 Sudoeste 19 Sudoeste 0 -- -- 92
2019-04-25 07:00:00 8.6 11 Sudoeste 18 Sur 0 -- -- 94
2019-04-25 06:00:00 8.1 9 Sudoeste 39 Oeste 0.2 -- -- 94
2019-04-25 05:00:00 9.8 11 Sudoeste 15 Sudoeste 0 -- -- 94
2019-04-25 04:00:00 9.6 6 Sudoeste 22 Oeste 0 -- -- 93
2019-04-25 03:00:00 9.7 9 Oeste 19 Sudoeste 0.2 -- -- 94
2019-04-25 02:00:00 9.4 9 Sudoeste 43 Oeste 1.6 -- -- 94
2019-04-25 01:00:00 11.2 38 Sudoeste 54 Sudoeste 2.8 -- -- 89
2019-04-25 00:00:00 13 36 Sudoeste 53 Sudoeste 0 -- -- 88
2019-04-24 23:00:00 12.9 32 Sudoeste 45 Sudoeste 0 -- -- 88
2019-04-24 22:00:00 13 23 Sudoeste 37 Sudoeste 0 -- -- 88
2019-04-24 21:00:00 13.3 26 Sudoeste 43 Sudoeste 0 -- -- 89
2019-04-24 20:00:00 13.4 33 Sudoeste 54 Sudoeste 0 -- -- 88
2019-04-24 19:00:00 12.8 37 Sudoeste 55 Sudoeste 3.4 -- -- 93
2019-04-24 18:00:00 13.7 42 Sudoeste 67 Sudoeste 0.2 -- -- 88
2019-04-24 17:00:00 15.2 45 Sudoeste 69 Sudoeste 0 -- -- 75
2019-04-24 16:00:00 14.5 43 Sur 65 Sudoeste 0 -- -- 78
2019-04-24 15:00:00 15.2 42 Sur 71 Sur 0 -- -- 73
2019-04-24 14:00:00 16.2 49 Sudoeste 68 Sur 0 -- -- 67
2019-04-24 13:00:00 15.2 48 Sudoeste 75 Sur 0 -- -- 70
2019-04-24 12:00:00 13.6 48 Sudoeste 73 Sur 0 -- -- 72
2019-04-24 11:00:00 12.2 53 Sudoeste 76 Sudoeste 0 -- -- 76
2019-04-24 10:00:00 10.5 45 Sudoeste 66 Sudoeste 0 -- -- 80
2019-04-24 09:00:00 9.2 38 Sur 58 Sur 0 -- -- 83
2019-04-24 08:00:00 8 38 Sur 53 Sur 0 -- -- 85
2019-04-24 07:00:00 7.4 30 Sur 44 Sur 0 -- -- 85
2019-04-24 06:00:00 6.9 21 Sur 33 Sur 0 -- -- 87
2019-04-24 05:00:00 6.6 20 Sur 28 Sur 0 -- -- 89
2019-04-24 04:00:00 6.4 15 Sur 22 Sur 0 -- -- 88
2019-04-24 03:00:00 5.7 13 Sur 19 Sudeste 0 -- -- 90
2019-04-24 02:00:00 5.8 14 Sur 20 Sur 0 -- -- 89
2019-04-24 01:00:00 6.1 9 Sur 17 Sudoeste 0 -- -- 90
2019-04-24 00:00:00 6.4 13 Sudoeste 21 Sudoeste 0 -- -- 88
2019-04-23 23:00:00 6.4 14 Sudoeste 20 Sudoeste 0 -- -- 90
2019-04-23 22:00:00 6.2 5 Oeste 18 Sudoeste 0 -- -- 91
2019-04-23 21:00:00 6.6 16 Sudoeste 32 Sudoeste 0.4 -- -- 90
2019-04-23 20:00:00 7.8 19 Sur 34 Oeste 0.2 -- -- 83
2019-04-23 19:00:00 9.6 15 Oeste 33 Oeste 0 -- -- 72
2019-04-23 18:00:00 9.8 16 Sudoeste 46 Oeste 0.4 -- -- 80
2019-04-23 17:00:00 9.9 31 Oeste 49 Oeste 0 -- -- 69
2019-04-23 16:00:00 8.9 20 Oeste 49 Oeste 0.4 -- -- 82
2019-04-23 15:00:00 11.3 25 Oeste 44 Noroeste 0.2 -- -- 66
2019-04-23 14:00:00 11.6 23 Oeste 43 Oeste 0 -- -- 68
2019-04-23 13:00:00 12.3 24 Oeste 41 Oeste 0 -- -- 65
2019-04-23 12:00:00 9.9 26 Oeste 38 Oeste 0 -- -- 68
2019-04-23 11:00:00 8.4 20 Oeste 34 Oeste 0 -- -- 77
2019-04-23 10:00:00 7.6 15 Oeste 25 Noroeste 0 -- -- 88
2019-04-23 09:00:00 7.4 13 Noroeste 23 Noroeste 0 -- -- 91
2019-04-23 08:00:00 7.8 9 Noroeste 20 Oeste 0 -- -- 95
2019-04-23 07:00:00 8.1 9 Oeste 17 Oeste 1.2 -- -- 96
2019-04-23 06:00:00 8.2 12 Oeste 30 Oeste 1.8 -- -- 94
2019-04-23 05:00:00 10.5 17 Oeste 37 Sudoeste 1 -- -- 89
2019-04-23 04:00:00 12.5 20 Sudoeste 27 Sudoeste 0 -- -- 74
2019-04-23 03:00:00 12.7 13 Sudoeste 21 Sudoeste 0 -- -- 76
2019-04-23 02:00:00 13.1 16 Sudoeste 29 Sudoeste 0 -- -- 72
2019-04-23 01:00:00 14 13 Sudoeste 28 Sudoeste 0 -- -- 61
2019-04-23 00:00:00 14.6 18 Sudoeste 26 Sudoeste 0 -- -- 51
2019-04-22 23:00:00 14.8 11 Sur 15 Sudoeste 0 -- -- 51
2019-04-22 22:00:00 15.5 9 Sudoeste 18 Oeste 0 -- -- 43
2019-04-22 21:00:00 17 13 Oeste 28 Oeste 0 -- -- 36
2019-04-22 20:00:00 18.7 22 Oeste 40 Oeste 0 -- -- 34
2019-04-22 19:00:00 20.2 24 Oeste 39 Oeste 0 -- -- 26
2019-04-22 18:00:00 21.1 24 Oeste 41 Oeste 0 -- -- 26
2019-04-22 17:00:00 21.7 21 Oeste 30 Sudoeste 0 -- -- 29
2019-04-22 16:00:00 19.7 17 Oeste 26 Noroeste 0 -- -- 35
2019-04-22 15:00:00 19.9 9 Oeste 27 Sudoeste 0 -- -- 39
2019-04-22 14:00:00 19.4 14 Oeste 25 Oeste 0 -- -- 41
2019-04-22 13:00:00 18.5 12 Sudoeste 21 Sudoeste 0 -- -- 46
2019-04-22 12:00:00 16.8 7 Sudoeste 21 Oeste 0 -- -- 51
2019-04-22 11:00:00 15.5 6 Sur 14 Sur 0 -- -- 56
2019-04-22 10:00:00 13.4 6 Sudeste 17 Sudeste 0 -- -- 62
2019-04-22 09:00:00 10.5 11 Sudeste 21 Sudeste 0 -- -- 73
2019-04-22 08:00:00 10.1 11 Sudeste 17 Sudeste 0 -- -- 74
2019-04-22 07:00:00 9.8 0 Calma 6 Sudeste 0 -- -- 74
2019-04-22 06:00:00 9.9 3 Sudeste 5 Sudeste 0 -- -- 74
2019-04-22 05:00:00 10.6 0 Calma 5 Sudeste 0 -- -- 72
2019-04-22 04:00:00 10.4 3 Sudeste 7 Sudeste 0 -- -- 74
2019-04-22 03:00:00 10.6 6 Sudeste 8 Sudeste 0 -- -- 73
2019-04-22 02:00:00 10.8 3 Sur 13 Sudeste 0 -- -- 76
2019-04-22 01:00:00 11.7 10 Sudeste 17 Sudeste 0 -- -- 69
2019-04-22 00:00:00 12.4 9 Sudeste 17 Sudeste 0 -- -- 64
2019-04-21 23:00:00 12.8 11 Sudeste 15 Sudeste 0 -- -- 61
2019-04-21 22:00:00 13.5 6 Sudeste 15 Este 0 -- -- 56
2019-04-21 21:00:00 13.9 9 Este 16 Este 0 -- -- 50
2019-04-21 20:00:00 14.5 9 Este 17 Sudeste 0 -- -- 51
2019-04-21 19:00:00 14.6 4 Sudeste 22 Este 0 -- -- 52
2019-04-21 18:00:00 13.7 15 Este 26 Este 0 -- -- 57
2019-04-21 17:00:00 15.6 12 Este 29 Este 0 -- -- 47
2019-04-21 16:00:00 16.1 9 Sudeste 29 Este 0 -- -- 47
2019-04-21 15:00:00 15.4 11 Nordeste 27 Nordeste 0 -- -- 54
2019-04-21 14:00:00 15.3 12 Nordeste 26 Nordeste 0 -- -- 57
2019-04-21 13:00:00 15 12 Nordeste 29 Nordeste 0 -- -- 58
2019-04-21 12:00:00 14.1 14 Nordeste 27 Nordeste 0 -- -- 64
2019-04-21 11:00:00 12.5 11 Nordeste 21 Nordeste 0 -- -- 67
2019-04-21 10:00:00 9.4 7 Nordeste 19 Este 0 -- -- 73
2019-04-21 09:00:00 8.7 9 Nordeste 27 Nordeste 0 -- -- 76
2019-04-21 08:00:00 9 6 Este 23 Este 0 -- -- 74
2019-04-21 07:00:00 9.2 3 Este 20 Sudeste 0 -- -- 73
2019-04-21 06:00:00 9.5 4 Sudeste 27 Sudeste 0 -- -- 73
2019-04-21 05:00:00 10.1 12 Este 36 Este 0 -- -- 70
2019-04-21 04:00:00 10.2 12 Sudeste 45 Sudeste 0 -- -- 71
2019-04-21 03:00:00 10.6 14 Este 33 Este 0 -- -- 70
2019-04-21 02:00:00 11 18 Este 45 Este 0 -- -- 69
2019-04-21 01:00:00 11.2 21 Este 42 Este 0 -- -- 70
2019-04-21 00:00:00 11.2 21 Sudeste 42 Este 0 -- -- 73
2019-04-20 23:00:00 11.5 19 Este 56 Sudeste 0 -- -- 73
2019-04-20 22:00:00 11.5 27 Sudeste 53 Sudeste 0 -- -- 73
2019-04-20 21:00:00 11.2 19 Este 67 Este 0 -- -- 77
2019-04-20 20:00:00 12.3 31 Sudeste 51 Sudeste 0 -- -- 70
2019-04-20 19:00:00 13.1 23 Sudeste 41 Sudeste 0 -- -- 74
2019-04-20 18:00:00 13.4 21 Sudeste 45 Este 0 -- -- 71
2019-04-20 17:00:00 13.2 23 Sudeste 58 Este 0 -- -- 70
2019-04-20 16:00:00 12.5 9 Sur 42 Sudeste 0.2 -- -- 84
2019-04-20 15:00:00 11.2 5 Oeste 33 Este 1.8 -- -- 89
2019-04-20 14:00:00 11.2 6 Este 38 Sudeste 3 -- -- 90
2019-04-20 13:00:00 11.5 15 Sudeste 31 Sudeste 0.8 -- -- 86
2019-04-20 12:00:00 11.1 7 Norte 21 Nordeste 0.8 -- -- 94
2019-04-20 11:00:00 10.4 8 Nordeste 19 Este 0.6 -- -- 93
2019-04-20 10:00:00 10.2 4 Nordeste 19 Este 0.8 -- -- 92
2019-04-20 09:00:00 9.8 6 Este 19 Nordeste 1.6 -- -- 93
2019-04-20 08:00:00 9 3 Nordeste 9 Nordeste 0 -- -- 93
2019-04-20 07:00:00 9.1 2 Norte 14 Nordeste 0 -- -- 88
2019-04-20 06:00:00 9.4 3 Nordeste 26 Nordeste 0 -- -- 80
2019-04-20 05:00:00 9.4 10 Nordeste 32 Este 0 -- -- 78
2019-04-20 04:00:00 9.4 17 Este 30 Este 0 -- -- 77
2019-04-20 03:00:00 9.2 19 Este 32 Este 0 -- -- 77
2019-04-20 02:00:00 9.7 16 Este 33 Este 0 -- -- 69
2019-04-20 01:00:00 10.1 10 Este 32 Este 0 -- -- 70
2019-04-20 00:00:00 10.4 12 Sudeste 30 Sudeste 0 -- -- 72
2019-04-19 23:00:00 11.2 12 Este 27 Sudeste 0 -- -- 68
2019-04-19 22:00:00 11.9 14 Sudeste 37 Este 0 -- -- 67
2019-04-19 21:00:00 12.1 23 Este 43 Este 0 -- -- 69
2019-04-19 20:00:00 12.7 26 Este 50 Este 0.2 -- -- 69
2019-04-19 19:00:00 14.6 12 Nordeste 36 Nordeste 0 -- -- 61
2019-04-19 18:00:00 15.3 7 Este 33 Este 0.6 -- -- 59
2019-04-19 17:00:00 16 17 Este 34 Nordeste 0 -- -- 52
2019-04-19 16:00:00 17.6 9 Norte 24 Nordeste 0 -- -- 43
2019-04-19 15:00:00 17.7 9 Nordeste 20 Nordeste 0 -- -- 43
2019-04-19 14:00:00 16.9 5 Sur 16 Sur 0 -- -- 50
2019-04-19 13:00:00 14.5 8 Nordeste 15 Nordeste 0 -- -- 59
2019-04-19 12:00:00 13.1 3 Norte 15 Este 0 -- -- 67
2019-04-19 11:00:00 12.4 3 Noroeste 13 Sudeste 0 -- -- 71
2019-04-19 10:00:00 11.9 4 Sur 10 Sur 0 -- -- 74
2019-04-19 09:00:00 10.3 3 Sur 10 Sudeste 0 -- -- 81
2019-04-19 08:00:00 9.6 6 Sudeste 11 Sudeste 0 -- -- 84
2019-04-19 07:00:00 9.2 3 Sur 9 Sudeste 0 -- -- 85
2019-04-19 06:00:00 9.4 6 Sudeste 10 Sudeste 0 -- -- 85
2019-04-19 05:00:00 9.1 6 Sudeste 9 Sudeste 0 -- -- 89
2019-04-19 04:00:00 9 5 Sur 8 Sur 0 -- -- 91
2019-04-19 03:00:00 9 2 Sudoeste 9 Sur 0 -- -- 90
2019-04-19 02:00:00 9 5 Sur 8 Sudeste 0 -- -- 91
2019-04-19 01:00:00 9.2 5 Sudoeste 13 Oeste 0 -- -- 90
2019-04-19 00:00:00 9.7 9 Oeste 25 Oeste 0 -- -- 86
2019-04-18 23:00:00 10.2 9 Sudoeste 15 Sudoeste 0 -- -- 75
2019-04-18 22:00:00 10.6 8 Sur 20 Sudoeste 0 -- -- 72
2019-04-18 21:00:00 11.9 15 Sudoeste 27 Oeste 0 -- -- 66
2019-04-18 20:00:00 14.3 5 Noroeste 18 Oeste 0 -- -- 54
2019-04-18 19:00:00 15.9 11 Noroeste 21 Oeste 0 -- -- 52
2019-04-18 18:00:00 15.7 10 Noroeste 26 Noroeste 0 -- -- 57
2019-04-18 17:00:00 14.8 15 Noroeste 25 Noroeste 0 -- -- 53
2019-04-18 16:00:00 12.5 12 Oeste 28 Oeste 0 -- -- 72
2019-04-18 15:00:00 11.3 12 Sudoeste 19 Sudoeste 2.4 -- -- 85
2019-04-18 14:00:00 12.9 11 Oeste 47 Oeste 0 -- -- 60
2019-04-18 13:00:00 16.8 10 Nordeste 21 Norte 0 -- -- 49
2019-04-18 12:00:00 15.8 6 Norte 15 Nordeste 0 -- -- 52
2019-04-18 11:00:00 13.9 6 Noroeste 13 Noroeste 0 -- -- 64
2019-04-18 10:00:00 12.1 2 Sudeste 6 Sudeste 0 -- -- 70
2019-04-18 09:00:00 10.7 5 Sudeste 10 Sudeste 0 -- -- 74
2019-04-18 08:00:00 10.5 6 Sudeste 9 Sudeste 0 -- -- 74
2019-04-18 07:00:00 10.4 3 Sur 7 Sudeste 0 -- -- 75
2019-04-18 06:00:00 10.6 5 Sudeste 14 Sur 0 -- -- 73
2019-04-18 05:00:00 10.5 8 Sur 15 Sudeste 0 -- -- 73
2019-04-18 04:00:00 10.8 8 Sudeste 22 Sur 0 -- -- 71
2019-04-18 03:00:00 10.9 13 Sur 18 Sur 0 -- -- 69
2019-04-18 02:00:00 11.3 8 Sudoeste 26 Sur 0 -- -- 64
2019-04-18 01:00:00 12.2 16 Sudoeste 30 Sur 0 -- -- 59
2019-04-18 00:00:00 12.7 23 Sudoeste 40 Sur 0 -- -- 60
2019-04-17 23:00:00 13.5 24 Sur 40 Sur 0 -- -- 56
2019-04-17 22:00:00 13.5 23 Sur 32 Sur 0 -- -- 55
2019-04-17 21:00:00 13.4 19 Sudoeste 37 Sudoeste 0 -- -- 58
2019-04-17 20:00:00 14.3 24 Sudoeste 44 Sudoeste 0 -- -- 60
2019-04-17 19:00:00 17.9 27 Sudoeste 45 Sudoeste 0 -- -- 51
2019-04-17 18:00:00 18.7 30 Sudoeste 46 Sur 0 -- -- 45
2019-04-17 17:00:00 19.8 27 Sudoeste 44 Sudoeste 0 -- -- 41
2019-04-17 16:00:00 21.6 28 Sudoeste 41 Sudoeste 0 -- -- 35
2019-04-17 15:00:00 21.2 22 Sudoeste 38 Sur 0 -- -- 35
2019-04-17 14:00:00 19.7 28 Sur 39 Sur 0 -- -- 36
2019-04-17 13:00:00 19.6 24 Sur 39 Sur 0 -- -- 38
2019-04-17 12:00:00 18.5 31 Sur 40 Sur 0 -- -- 38
2019-04-17 11:00:00 16 14 Sudeste 29 Sudeste 0 -- -- 43
2019-04-17 10:00:00 14.7 12 Sudeste 23 Sudeste 0 -- -- 44
2019-04-17 09:00:00 13.6 17 Sudeste 30 Sudeste 0 -- -- 48
2019-04-17 08:00:00 12.6 19 Sudeste 40 Sudeste 0 -- -- 53
2019-04-17 07:00:00 13.2 21 Sudeste 36 Sudeste 0 -- -- 50
2019-04-17 06:00:00 12.7 17 Sur 37 Sudeste 0 -- -- 49
2019-04-17 05:00:00 13.7 26 Sudeste 40 Sudeste 0 -- -- 48
2019-04-17 04:00:00 13.7 21 Sur 37 Sudeste 0 -- -- 45
2019-04-17 03:00:00 15 19 Sudeste 33 Sudeste 0 -- -- 51
2019-04-17 02:00:00 16.4 16 Sudeste 27 Sudeste 0 -- -- 46
2019-04-17 01:00:00 17.1 14 Sudeste 23 Sudeste 0 -- -- 42
2019-04-17 00:00:00 17.6 11 Sudeste 22 Sudeste 0 -- -- 40
2019-04-16 23:00:00 17.9 12 Sur 26 Sur 0 -- -- 38
2019-04-16 22:00:00 18.4 14 Sur 25 Sur 0 -- -- 33
2019-04-16 21:00:00 19.7 15 Sur 31 Sur 0 -- -- 26
2019-04-16 20:00:00 23.1 22 Sur 38 Sur 0 -- -- 18
2019-04-16 19:00:00 24.5 19 Sur 30 Sur 0 -- -- 19
2019-04-16 18:00:00 25 15 Sur 28 Sur 0 -- -- 21
2019-04-16 17:00:00 24.6 12 Sur 29 Sudeste 0 -- -- 22
2019-04-16 16:00:00 23.7 15 Sudeste 28 Sur 0 -- -- 25
2019-04-16 15:00:00 23.1 12 Sudeste 32 Sudeste 0 -- -- 25
2019-04-16 14:00:00 21.5 13 Sur 24 Sudeste 0 -- -- 31
2019-04-16 13:00:00 19.4 10 Sudeste 24 Sudeste 0 -- -- 38
2019-04-16 12:00:00 18.2 14 Sudeste 30 Sudeste 0 -- -- 44
2019-04-16 11:00:00 16.8 12 Sur 19 Sudeste 0 -- -- 51
2019-04-16 10:00:00 14.4 8 Sudeste 18 Sudeste 0 -- -- 61
2019-04-16 09:00:00 11.5 15 Sudeste 20 Sudeste 0 -- -- 71
2019-04-16 08:00:00 9.9 4 Sudeste 8 Sudeste 0 -- -- 78
2019-04-16 07:00:00 9.8 3 Sudeste 5 Este 0 -- -- 80
2019-04-16 06:00:00 10.4 3 Nordeste 6 Nordeste 0 -- -- 75
2019-04-16 05:00:00 10.2 4 Sudeste 6 Sudeste 0 -- -- 79
2019-04-16 04:00:00 10.7 0 Calma 5 Sudeste 0 -- -- 76
2019-04-16 03:00:00 11.3 2 Sudeste 6 Sudoeste 0 -- -- 73
2019-04-16 02:00:00 12.2 3 Sudoeste 7 Sudoeste 0 -- -- 66
2019-04-16 01:00:00 13.2 0 Calma 7 Noroeste 0 -- -- 63
2019-04-16 00:00:00 13.6 3 Noroeste 7 Noroeste 0 -- -- 62
2019-04-15 23:00:00 14.2 3 Norte 8 Noroeste 0 -- -- 59
2019-04-15 22:00:00 14.7 5 Noroeste 18 Noroeste 0 -- -- 58
2019-04-15 21:00:00 16 9 Noroeste 30 Oeste 0 -- -- 56
2019-04-15 20:00:00 17 17 Noroeste 32 Oeste 0 -- -- 54
2019-04-15 19:00:00 17.7 21 Noroeste 41 Noroeste 0 -- -- 55
2019-04-15 18:00:00 18.7 24 Noroeste 40 Noroeste 0 -- -- 51
2019-04-15 17:00:00 21.2 24 Noroeste 41 Oeste 0 -- -- 35
2019-04-15 16:00:00 21.9 20 Oeste 38 Oeste 0 -- -- 40
2019-04-15 15:00:00 22.3 17 Oeste 35 Oeste 0 -- -- 39
2019-04-15 14:00:00 21.1 16 Noroeste 31 Oeste 0 -- -- 44
2019-04-15 13:00:00 21.1 19 Oeste 33 Oeste 0 -- -- 31
2019-04-15 12:00:00 19.7 17 Oeste 31 Sudoeste 0 -- -- 54
2019-04-15 11:00:00 18.9 16 Sudoeste 22 Sur 0 -- -- 58
2019-04-15 10:00:00 16.8 13 Sur 25 Sudeste 0 -- -- 66
2019-04-15 09:00:00 16.3 20 Sudeste 31 Sudeste 0 -- -- 64
2019-04-15 08:00:00 15.8 22 Sudeste 31 Sudeste 0 -- -- 66
2019-04-15 07:00:00 15.9 19 Sudeste 28 Sudeste 0 -- -- 67
2019-04-15 06:00:00 16.3 17 Sudeste 28 Sudeste 0 -- -- 67
2019-04-15 05:00:00 16.6 19 Sudeste 27 Este 0 -- -- 65
2019-04-15 04:00:00 17.5 15 Sudeste 22 Sudeste 0 -- -- 61
2019-04-15 03:00:00 17.5 15 Sudeste 27 Sudeste 0 -- -- 62
2019-04-15 02:00:00 17.3 15 Sudeste 26 Sudeste 0 -- -- 65
2019-04-15 01:00:00 17.5 15 Sudeste 22 Sudeste 0 -- -- 62
2019-04-15 00:00:00 17.5 11 Sudeste 18 Sudeste 0 -- -- 63
2019-04-14 23:00:00 19 11 Sudeste 18 Sudeste 0 -- -- 58
2019-04-14 22:00:00 19.1 12 Este 20 Este 0 -- -- 56
2019-04-14 21:00:00 19.7 10 Este 17 Nordeste 0 -- -- 56
2019-04-14 20:00:00 21.1 9 Nordeste 14 Norte 0 -- -- 52
2019-04-14 19:00:00 21.5 6 Norte 15 Norte 0 -- -- 52
2019-04-14 18:00:00 22.6 8 Oeste 16 Noroeste 0 -- -- 51
2019-04-14 17:00:00 22.9 8 Noroeste 20 Oeste 0 -- -- 52
2019-04-14 16:00:00 22.1 5 Noroeste 15 Oeste 0 -- -- 55
2019-04-14 15:00:00 20.5 5 Noroeste 15 Norte 0 -- -- 61
2019-04-14 14:00:00 18.9 8 Noroeste 17 Oeste 0 -- -- 66
2019-04-14 13:00:00 18.2 3 Este 16 Oeste 0 -- -- 68
2019-04-14 12:00:00 15.3 3 Sudoeste 12 Oeste 0 -- -- 81
2019-04-14 11:00:00 14.1 6 Oeste 14 Oeste 0 -- -- 85
2019-04-14 10:00:00 13.3 9 Oeste 13 Oeste 0 -- -- 90
2019-04-14 09:00:00 13.3 5 Sudoeste 8 Sudoeste 0 -- -- 90
2019-04-14 08:00:00 12.7 0 Calma 5 Oeste 0 -- -- 93
2019-04-14 07:00:00 12.4 3 Oeste 6 Oeste 0 -- -- 93
2019-04-14 06:00:00 12.2 3 Sudoeste 8 Sudoeste 0 -- -- 92
2019-04-14 05:00:00 12.3 4 Sur 8 Sudoeste 0 -- -- 88
2019-04-14 04:00:00 12.5 5 Sudoeste 10 Sudoeste 0 -- -- 83
2019-04-14 03:00:00 13.1 5 Noroeste 11 Oeste 0 -- -- 80
2019-04-14 02:00:00 13.6 3 Sudoeste 10 Oeste 0 -- -- 68
2019-04-14 01:00:00 14.5 3 Sur 6 Sur 0 -- -- 53
2019-04-14 00:00:00 15.1 3 Sudoeste 8 Oeste 0 -- -- 47
2019-04-13 23:00:00 15.7 0 Calma 9 Noroeste 0 -- -- 44
2019-04-13 22:00:00 16.5 5 Noroeste 23 Noroeste 0 -- -- 40
2019-04-13 21:00:00 18.5 9 Noroeste 22 Noroeste 0 -- -- 27
2019-04-13 20:00:00 21.2 13 Noroeste 25 Noroeste 0 -- -- 24
2019-04-13 19:00:00 22 15 Oeste 31 Oeste 0 -- -- 24
2019-04-13 18:00:00 22.5 10 Noroeste 22 Noroeste 0 -- -- 22
2019-04-13 17:00:00 22.4 8 Noroeste 22 Noroeste 0 -- -- 23
2019-04-13 16:00:00 21.6 10 Noroeste 25 Oeste 0 -- -- 28
2019-04-13 15:00:00 21 7 Noroeste 18 Noroeste 0 -- -- 28
2019-04-13 14:00:00 20.1 9 Norte 19 Noroeste 0 -- -- 31
2019-04-13 13:00:00 18.8 8 Noroeste 18 Noroeste 0 -- -- 34
2019-04-13 12:00:00 17.9 8 Noroeste 18 Norte 0 -- -- 41
2019-04-13 11:00:00 15.8 4 Sudoeste 9 Sudoeste 0 -- -- 50
2019-04-13 10:00:00 13.8 5 Sur 8 Sur 0 -- -- 53
2019-04-13 09:00:00 11.3 3 Sur 9 Sudeste 0 -- -- 58
2019-04-13 08:00:00 10.1 5 Sur 9 Sur 0 -- -- 57
2019-04-13 07:00:00 10.6 4 Sudoeste 9 Sudoeste 0 -- -- 51
2019-04-13 06:00:00 10.5 5 Sudeste 10 Sudeste 0 -- -- 49
2019-04-13 05:00:00 10.9 5 Sur 8 Sur 0 -- -- 45
2019-04-13 04:00:00 12.7 2 Sur 8 Sur 0 -- -- 36
2019-04-13 03:00:00 13.2 4 Sudeste 6 Sur 0 -- -- 34
2019-04-13 02:00:00 13.2 0 Calma 5 Sur 0 -- -- 34
2019-04-13 01:00:00 13.5 3 Sur 4 Sudeste 0 -- -- 34
2019-04-13 00:00:00 13.9 0 Calma 4 Este 0 -- -- 34
2019-04-12 23:00:00 14.6 3 Norte 4 Norte 0 -- -- 32
2019-04-12 22:00:00 15.4 3 Norte 9 Norte 0 -- -- 29
2019-04-12 21:00:00 16.8 5 Norte 17 Noroeste 0 -- -- 26
2019-04-12 20:00:00 18.9 11 Noroeste 21 Noroeste 0 -- -- 24
2019-04-12 19:00:00 19.9 10 Noroeste 21 Noroeste 0 -- -- 23
2019-04-12 18:00:00 19.8 9 Noroeste 18 Noroeste 0 -- -- 24
2019-04-12 17:00:00 19.8 8 Noroeste 21 Oeste 0 -- -- 23
2019-04-12 16:00:00 19.3 6 Norte 20 Noroeste 0 -- -- 24
2019-04-12 15:00:00 18.8 9 Norte 18 Norte 0 -- -- 27
2019-04-12 14:00:00 17.9 7 Noroeste 18 Norte 0 -- -- 30
2019-04-12 13:00:00 16.5 9 Nordeste 17 Nordeste 0 -- -- 36
2019-04-12 12:00:00 14.6 9 Norte 15 Nordeste 0 -- -- 42
2019-04-12 11:00:00 12.6 7 Norte 13 Norte 0 -- -- 46
2019-04-12 10:00:00 11.7 3 Nordeste 10 Sur 0 -- -- 48
2019-04-12 09:00:00 8.3 6 Sur 9 Sudeste 0 -- -- 61
2019-04-12 08:00:00 8.5 0 Calma 14 Sudeste 0 -- -- 55
2019-04-12 07:00:00 8.5 2 Nordeste 12 Sudeste 0 -- -- 56
2019-04-12 06:00:00 10.2 4 Este 14 Sudeste 0 -- -- 49
2019-04-12 05:00:00 10.3 11 Sudeste 16 Sudeste 0 -- -- 49
2019-04-12 04:00:00 11 2 Oeste 14 Este 0 -- -- 48
2019-04-12 03:00:00 11.1 8 Nordeste 11 Nordeste 0 -- -- 46
2019-04-12 02:00:00 10.7 0 Calma 6 Sudeste 0 -- -- 46
2019-04-12 01:00:00 11.5 0 Calma 5 Norte 0 -- -- 44
2019-04-12 00:00:00 11.9 0 Calma 5 Norte 0 -- -- 43
2019-04-11 23:00:00 12.7 4 Norte 8 Norte 0 -- -- 41
2019-04-11 22:00:00 13.5 6 Norte 14 Norte 0 -- -- 39
2019-04-11 21:00:00 14.8 8 Norte 16 Noroeste 0 -- -- 37
2019-04-11 20:00:00 17.7 9 Norte 23 Noroeste 0 -- -- 29
2019-04-11 19:00:00 17.7 14 Noroeste 22 Noroeste 0 -- -- 31
2019-04-11 18:00:00 17.8 10 Noroeste 21 Oeste 0 -- -- 33
2019-04-11 17:00:00 18.3 9 Noroeste 24 Noroeste 0 -- -- 28
2019-04-11 16:00:00 18 10 Noroeste 21 Noroeste 0 -- -- 32
2019-04-11 15:00:00 17 8 Norte 21 Norte 0 -- -- 33
2019-04-11 14:00:00 16 7 Norte 19 Norte 0 -- -- 44
2019-04-11 13:00:00 14.9 6 Norte 13 Nordeste 0 -- -- 46
2019-04-11 12:00:00 13.4 8 Norte 13 Norte 0 -- -- 55
2019-04-11 11:00:00 11.2 5 Norte 12 Norte 0 -- -- 67
2019-04-11 10:00:00 8.6 4 Oeste 6 Noroeste 0 -- -- 80
2019-04-11 09:00:00 6 2 Sudeste 4 Sudeste 0 -- -- 91
2019-04-11 08:00:00 5.7 0 Calma 5 Sur 0 -- -- 89
2019-04-11 07:00:00 6 0 Calma 4 Sur 0 -- -- 85
2019-04-11 06:00:00 6.4 2 Sudoeste 8 Noroeste 0 -- -- 80
2019-04-11 05:00:00 7 5 Norte 12 Norte 0 -- -- 77
2019-04-11 04:00:00 7.7 5 Norte 13 Noroeste 0 -- -- 74
2019-04-11 03:00:00 8.2 2 Noroeste 12 Norte 0 -- -- 70
2019-04-11 02:00:00 9 8 Norte 17 Norte 0 -- -- 67
2019-04-11 01:00:00 9.4 12 Norte 19 Noroeste 0 -- -- 70
2019-04-11 00:00:00 10.4 10 Noroeste 20 Noroeste 0 -- -- 65
2019-04-10 23:00:00 10.9 10 Noroeste 19 Noroeste 0 -- -- 63
2019-04-10 22:00:00 11.6 10 Noroeste 22 Norte 0 -- -- 57
2019-04-10 21:00:00 13.4 13 Noroeste 30 Noroeste 0 -- -- 49
2019-04-10 20:00:00 15 13 Noroeste 37 Noroeste 0 -- -- 42
2019-04-10 19:00:00 16.2 21 Noroeste 40 Noroeste 0 -- -- 38
2019-04-10 18:00:00 16 24 Noroeste 40 Noroeste 0 -- -- 42
2019-04-10 17:00:00 16.1 21 Noroeste 35 Noroeste 0 -- -- 40
2019-04-10 16:00:00 14.5 23 Noroeste 39 Noroeste 0 -- -- 50
2019-04-10 15:00:00 13.9 14 Noroeste 32 Norte 0 -- -- 57
2019-04-10 14:00:00 13.6 18 Noroeste 39 Norte 0 -- -- 58
2019-04-10 13:00:00 12.7 23 Noroeste 41 Noroeste 0 -- -- 61
2019-04-10 12:00:00 11.2 16 Noroeste 29 Oeste 0 -- -- 73
2019-04-10 11:00:00 9 14 Noroeste 28 Oeste 0 -- -- 83
2019-04-10 10:00:00 7.8 13 Noroeste 27 Noroeste 0 -- -- 90
2019-04-10 09:00:00 6.9 11 Oeste 26 Oeste 0 -- -- 94
2019-04-10 08:00:00 6.8 13 Noroeste 21 Noroeste 0 -- -- 94
2019-04-10 07:00:00 7 12 Noroeste 18 Oeste 0 -- -- 93
2019-04-10 06:00:00 6.8 10 Oeste 17 Oeste 0 -- -- 94
2019-04-10 05:00:00 6.9 9 Noroeste 15 Oeste 0 -- -- 94
2019-04-10 04:00:00 7 9 Noroeste 18 Oeste 0 -- -- 91
2019-04-10 03:00:00 7.9 12 Noroeste 22 Noroeste 0 -- -- 84
2019-04-10 02:00:00 7.9 9 Oeste 22 Oeste 0 -- -- 79
2019-04-10 01:00:00 8.8 12 Noroeste 22 Noroeste 0 -- -- 76
2019-04-10 00:00:00 9 9 Oeste 18 Oeste 0 -- -- 72
2019-04-09 23:00:00 10.1 8 Oeste 18 Oeste 0 -- -- 69
2019-04-09 22:00:00 10.9 11 Noroeste 19 Noroeste 0 -- -- 64
2019-04-09 21:00:00 11.7 12 Oeste 35 Oeste 0 -- -- 64
2019-04-09 20:00:00 13.1 17 Oeste 37 Noroeste 0 -- -- 55
2019-04-09 19:00:00 12.9 27 Oeste 55 Oeste 0 -- -- 56
2019-04-09 18:00:00 13.4 21 Noroeste 46 Oeste 0.2 -- -- 59
2019-04-09 17:00:00 14.4 26 Oeste 40 Oeste 0 -- -- 53
2019-04-09 16:00:00 13 27 Oeste 42 Oeste 0 -- -- 66
2019-04-09 15:00:00 13.6 26 Oeste 44 Oeste 0 -- -- 54
2019-04-09 14:00:00 12.2 31 Oeste 43 Oeste 0 -- -- 62
2019-04-09 13:00:00 11.1 23 Oeste 33 Oeste 0 -- -- 75
2019-04-09 12:00:00 7.3 17 Oeste 57 Oeste 1.8 -- -- 89
2019-04-09 11:00:00 9.6 21 Oeste 35 Oeste 0 -- -- 80
2019-04-09 10:00:00 9.2 15 Sudoeste 24 Sudoeste 0 -- -- 86
2019-04-09 09:00:00 7.8 8 Sur 15 Sudoeste 0 -- -- 90
2019-04-09 08:00:00 7.4 8 Sur 17 Sudoeste 0 -- -- 91
2019-04-09 07:00:00 7 6 Sur 14 Sudoeste 0 -- -- 91
2019-04-09 06:00:00 7.3 8 Sur 13 Sur 0 -- -- 90
2019-04-09 05:00:00 7 7 Sur 22 Oeste 0 -- -- 89
2019-04-09 04:00:00 7.3 10 Sudoeste 22 Sudoeste 0 -- -- 88
2019-04-09 03:00:00 7.4 8 Sudoeste 21 Sudoeste 0 -- -- 88
2019-04-09 02:00:00 7.8 9 Sudoeste 17 Sudoeste 0 -- -- 90
2019-04-09 01:00:00 7.7 5 Sudoeste 9 Sur 0 -- -- 86
2019-04-09 00:00:00 8.1 3 Sudoeste 10 Oeste 0 -- -- 80
2019-04-08 23:00:00 9.3 3 Noroeste 18 Noroeste 0 -- -- 77
2019-04-08 22:00:00 9.6 11 Noroeste 40 Noroeste 0 -- -- 76
2019-04-08 21:00:00 12.6 9 Oeste 27 Noroeste 0 -- -- 50
2019-04-08 20:00:00 15.1 19 Oeste 38 Oeste 0 -- -- 38
2019-04-08 19:00:00 14.8 19 Noroeste 33 Noroeste 0 -- -- 43
2019-04-08 18:00:00 15.2 23 Noroeste 37 Oeste 0 -- -- 51
2019-04-08 17:00:00 15.3 22 Oeste 36 Noroeste 0 -- -- 55
2019-04-08 16:00:00 15.5 19 Oeste 33 Oeste 0 -- -- 61
2019-04-08 15:00:00 14.7 16 Oeste 28 Noroeste 0 -- -- 67
2019-04-08 14:00:00 13.7 13 Sudoeste 22 Sur 0 -- -- 78
2019-04-08 13:00:00 12.3 13 Oeste 22 Oeste 0 -- -- 79
2019-04-08 12:00:00 12.3 9 Sudoeste 18 Oeste 0 -- -- 88
2019-04-08 11:00:00 11.6 12 Sudoeste 18 Sudoeste 0.2 -- -- 95
2019-04-08 10:00:00 10.6 9 Oeste 20 Sur 0.2 -- -- 96
2019-04-08 09:00:00 10.1 14 Sur 26 Sur 0.2 -- -- 94
2019-04-08 08:00:00 9.6 15 Sur 22 Sudoeste 0.2 -- -- 95
2019-04-08 07:00:00 9.8 14 Sur 22 Sudoeste 0.6 -- -- 95
2019-04-08 06:00:00 10.1 16 Sudoeste 26 Sudoeste 0 -- -- 92
2019-04-08 05:00:00 10.3 13 Sudoeste 23 Sudoeste 0 -- -- 94
2019-04-08 04:00:00 10.3 12 Sudoeste 19 Sudoeste 0 -- -- 95
2019-04-08 03:00:00 10.6 15 Sudoeste 24 Sudoeste 0.4 -- -- 96
2019-04-08 02:00:00 10.8 15 Sudoeste 22 Sudoeste 0.8 -- -- 96
2019-04-08 01:00:00 10.8 12 Sur 18 Sur 0 -- -- 94
2019-04-08 00:00:00 10.7 8 Sur 13 Sudoeste 0 -- -- 94
2019-04-07 23:00:00 11.3 8 Sudoeste 13 Sudoeste 0 -- -- 95
2019-04-07 22:00:00 11.3 10 Sudoeste 27 Sur 0.4 -- -- 95
2019-04-07 21:00:00 11.6 12 Sur 26 Sur 0.2 -- -- 92
2019-04-07 20:00:00 12.2 18 Sur 27 Sudoeste 0 -- -- 87
2019-04-07 19:00:00 12.4 19 Sudoeste 28 Sudoeste 0 -- -- 85
2019-04-07 18:00:00 11.7 19 Sur 26 Sur 0 -- -- 86
2019-04-07 17:00:00 11.3 14 Sur 26 Sudoeste 0 -- -- 88
2019-04-07 16:00:00 10.9 17 Sudoeste 28 Sudoeste 0.2 -- -- 91
2019-04-07 15:00:00 11.9 12 Sudoeste 25 Oeste 0 -- -- 81
2019-04-07 14:00:00 11.6 11 Sudoeste 22 Sudoeste 0 -- -- 78
2019-04-07 13:00:00 11.1 12 Oeste 29 Oeste 0 -- -- 83
2019-04-07 12:00:00 9.5 13 Oeste 27 Oeste 0 -- -- 81
2019-04-07 11:00:00 9 16 Oeste 25 Oeste 0 -- -- 85
2019-04-07 10:00:00 8.2 8 Sudoeste 14 Sudoeste 0 -- -- 94
2019-04-07 09:00:00 7.2 5 Oeste 15 Sudoeste 0 -- -- 95
2019-04-07 08:00:00 6.4 9 Sudoeste 28 Noroeste 1.2 -- -- 94
2019-04-07 07:00:00 7 11 Oeste 19 Oeste 0 -- -- 94
2019-04-07 06:00:00 6.7 12 Oeste 31 Oeste 0.2 -- -- 93
2019-04-07 05:00:00 6.9 18 Oeste 31 Oeste 0 -- -- 93
2019-04-07 04:00:00 6.9 15 Oeste 36 Oeste 0 -- -- 92
2019-04-07 03:00:00 7 24 Oeste 37 Oeste 0 -- -- 91
2019-04-07 02:00:00 7 21 Oeste 35 Oeste 0 -- -- 92
2019-04-07 01:00:00 6.5 10 Sudoeste 18 Sudoeste 0 -- -- 93
2019-04-07 00:00:00 6.8 7 Sudoeste 13 Oeste 0 -- -- 93
2019-04-06 23:00:00 6.7 5 Sudoeste 18 Oeste 0 -- -- 92
2019-04-06 22:00:00 6.8 11 Oeste 22 Oeste 0.2 -- -- 91
2019-04-06 21:00:00 5.7 9 Sur 28 Noroeste 1 -- -- 91
2019-04-06 20:00:00 5.2 9 Norte 42 Noroeste 4.4 -- -- 89
2019-04-06 19:00:00 11.1 23 Oeste 44 Noroeste 0 -- -- 55
2019-04-06 18:00:00 10.1 32 Oeste 48 Oeste 0 -- -- 54
2019-04-06 17:00:00 8.6 18 Oeste 50 Noroeste 0.2 -- -- 74
2019-04-06 16:00:00 7.1 20 Noroeste 63 Noroeste 1 -- -- 84
2019-04-06 15:00:00 10.5 24 Oeste 45 Oeste 0 -- -- 62
2019-04-06 14:00:00 10.8 26 Oeste 44 Oeste 0 -- -- 56
2019-04-06 13:00:00 8 22 Oeste 44 Oeste 0 -- -- 77
2019-04-06 12:00:00 8.8 30 Oeste 42 Oeste 0 -- -- 68
2019-04-06 11:00:00 8.4 26 Oeste 44 Oeste 0 -- -- 69
2019-04-06 10:00:00 7.5 16 Sudoeste 26 Sudoeste 0 -- -- 82
2019-04-06 09:00:00 6.9 15 Oeste 25 Sudoeste 0 -- -- 84
2019-04-06 08:00:00 6.2 14 Sudoeste 24 Sudoeste 0 -- -- 90
2019-04-06 07:00:00 6.1 14 Oeste 26 Oeste 0 -- -- 89
2019-04-06 06:00:00 6.3 14 Oeste 24 Sudoeste 0 -- -- 89
2019-04-06 05:00:00 6.1 15 Oeste 26 Oeste 0 -- -- 88
2019-04-06 04:00:00 6 16 Oeste 30 Oeste 0 -- -- 88
2019-04-06 03:00:00 5.6 11 Oeste 20 Sudoeste 0 -- -- 90
2019-04-06 02:00:00 5.2 11 Sudoeste 19 Oeste 0 -- -- 90
2019-04-06 01:00:00 5.2 14 Oeste 29 Oeste 0 -- -- 86
2019-04-06 00:00:00 6.1 15 Oeste 29 Oeste 0 -- -- 85
2019-04-05 23:00:00 6.4 17 Oeste 30 Oeste 0 -- -- 86
2019-04-05 22:00:00 5.9 12 Sudoeste 27 Sudoeste 0 -- -- 85
2019-04-05 21:00:00 7 18 Oeste 37 Oeste 0 -- -- 76
2019-04-05 20:00:00 8 27 Oeste 52 Oeste 0 -- -- 67
2019-04-05 19:00:00 10.8 21 Oeste 34 Oeste 0.2 -- -- 51
2019-04-05 18:00:00 10.5 20 Oeste 35 Oeste 0 -- -- 49
2019-04-05 17:00:00 9 16 Noroeste 58 Oeste 0 -- -- 63
2019-04-05 16:00:00 10.8 29 Oeste 41 Oeste 0 -- -- 49
2019-04-05 15:00:00 9.7 28 Oeste 41 Oeste 0 -- -- 64
2019-04-05 14:00:00 7.5 21 Noroeste 39 Noroeste 0 -- -- 76
2019-04-05 13:00:00 7.4 20 Oeste 35 Oeste 0 -- -- 78
2019-04-05 12:00:00 6 18 Oeste 40 Noroeste 1.2 -- -- 91
2019-04-05 11:00:00 7.9 21 Sudoeste 32 Sudoeste 0.2 -- -- 86
2019-04-05 10:00:00 7.3 14 Sur 20 Sur 0 -- -- 86
2019-04-05 09:00:00 6.7 13 Sur 23 Sudoeste 0 -- -- 89
2019-04-05 08:00:00 6.6 14 Sur 27 Sudoeste 0.6 -- -- 94
2019-04-05 07:00:00 6.7 16 Sudoeste 30 Oeste 0.6 -- -- 93
2019-04-05 06:00:00 6.4 18 Sur 31 Sudoeste 0.4 -- -- 91
2019-04-05 05:00:00 6.8 17 Sudoeste 27 Sudoeste 0.8 -- -- 87
2019-04-05 04:00:00 7.8 18 Sudoeste 28 Sudoeste 0 -- -- 61
2019-04-05 03:00:00 8.2 17 Sudoeste 28 Sudoeste 0 -- -- 69
2019-04-05 02:00:00 9 11 Oeste 31 Oeste 0 -- -- 63
2019-04-05 01:00:00 9.9 20 Oeste 31 Sudoeste 0 -- -- 55
2019-04-05 00:00:00 10.6 11 Oeste 22 Oeste 0 -- -- 46
2019-04-04 23:00:00 10.6 4 Sudoeste 10 Sudoeste 0 -- -- 41
2019-04-04 22:00:00 11.1 6 Oeste 16 Oeste 0 -- -- 36
2019-04-04 21:00:00 12.3 10 Noroeste 26 Oeste 0 -- -- 29
2019-04-04 20:00:00 14.5 18 Oeste 30 Oeste 0 -- -- 22
2019-04-04 19:00:00 15.6 17 Oeste 32 Oeste 0 -- -- 21
2019-04-04 18:00:00 15.9 16 Oeste 31 Oeste 0 -- -- 25
2019-04-04 17:00:00 16.4 14 Oeste 25 Oeste 0 -- -- 26
2019-04-04 16:00:00 15.9 13 Oeste 24 Oeste 0 -- -- 21
2019-04-04 15:00:00 14.8 8 Noroeste 20 Oeste 0 -- -- 28
2019-04-04 14:00:00 13.3 8 Oeste 17 Noroeste 0 -- -- 33
2019-04-04 13:00:00 12.5 6 Noroeste 15 Nordeste 0 -- -- 34
2019-04-04 12:00:00 10.8 4 Norte 11 Norte 0 -- -- 39
2019-04-04 11:00:00 8 4 Noroeste 12 Noroeste 0 -- -- 46
2019-04-04 10:00:00 6.3 3 Oeste 8 Oeste 0 -- -- 51
2019-04-04 09:00:00 3.3 0 Calma 5 Sudoeste 0 -- -- 61
2019-04-04 08:00:00 3.3 0 Calma 4 Oeste 0 -- -- 59
2019-04-04 07:00:00 4 0 Calma 8 Noroeste 0 -- -- 58
2019-04-04 06:00:00 4.6 6 Norte 15 Noroeste 0 -- -- 56
2019-04-04 05:00:00 5.3 9 Noroeste 22 Norte 0 -- -- 55
2019-04-04 04:00:00 6.2 9 Norte 18 Noroeste 0 -- -- 50
2019-04-04 03:00:00 6.9 12 Norte 19 Noroeste 0 -- -- 47
2019-04-04 02:00:00 7.8 7 Norte 13 Noroeste 0 -- -- 45
2019-04-04 01:00:00 8.5 9 Norte 17 Noroeste 0 -- -- 42
2019-04-04 00:00:00 9.2 9 Norte 17 Noroeste 0 -- -- 42
2019-04-03 23:00:00 10.2 9 Norte 19 Norte 0 -- -- 39
2019-04-03 22:00:00 11.5 10 Norte 20 Norte 0 -- -- 37
2019-04-03 21:00:00 13.1 12 Norte 31 Norte 0 -- -- 34
2019-04-03 20:00:00 15.8 19 Noroeste 38 Noroeste 0 -- -- 27
2019-04-03 19:00:00 16.8 20 Noroeste 37 Oeste 0 -- -- 28
2019-04-03 18:00:00 16.6 19 Oeste 35 Noroeste 0 -- -- 38
2019-04-03 17:00:00 16 20 Oeste 38 Noroeste 0 -- -- 41
2019-04-03 16:00:00 15.5 25 Oeste 42 Oeste 0 -- -- 43
2019-04-03 15:00:00 15.7 22 Oeste 36 Oeste 0 -- -- 40
2019-04-03 14:00:00 15.3 18 Oeste 28 Oeste 0 -- -- 45
2019-04-03 13:00:00 14.4 16 Oeste 28 Oeste 0 -- -- 42
2019-04-03 12:00:00 12.9 13 Oeste 21 Oeste 0 -- -- 60
2019-04-03 11:00:00 11 9 Oeste 17 Oeste 0 -- -- 71
2019-04-03 10:00:00 9.7 7 Oeste 17 Sur 0 -- -- 80
2019-04-03 09:00:00 7.8 5 Sudoeste 15 Sudoeste 0 -- -- 87
2019-04-03 08:00:00 8.5 6 Sur 14 Sur 0 -- -- 86
2019-04-03 07:00:00 9 8 Sur 15 Sur 0 -- -- 87
2019-04-03 06:00:00 9.6 7 Sur 11 Sudeste 0 -- -- 81
2019-04-03 05:00:00 10.2 4 Sur 10 Sudeste 0 -- -- 79
2019-04-03 04:00:00 10.8 7 Sur 12 Sur 0 -- -- 76
2019-04-03 03:00:00 11.1 5 Sur 8 Sur 0 -- -- 72
2019-04-03 02:00:00 11.9 0 Calma 6 Sur 0 -- -- 66
2019-04-03 01:00:00 12.5 4 Sur 7 Sur 0 -- -- 63
2019-04-03 00:00:00 13.4 0 Calma 8 Oeste 0 -- -- 58
2019-04-02 23:00:00 14 3 Sur 8 Oeste 0 -- -- 52
2019-04-02 22:00:00 14.8 0 Calma 7 Oeste 0 -- -- 47
2019-04-02 21:00:00 16 3 Oeste 23 Noroeste 0 -- -- 45
2019-04-02 20:00:00 18.3 9 Noroeste 22 Noroeste 0 -- -- 42
2019-04-02 19:00:00 18.9 12 Oeste 23 Noroeste 0 -- -- 37
2019-04-02 18:00:00 19.1 10 Oeste 21 Oeste 0 -- -- 39
2019-04-02 17:00:00 19.3 12 Oeste 18 Oeste 0 -- -- 40
2019-04-02 16:00:00 18.8 7 Noroeste 17 Noroeste 0 -- -- 46
2019-04-02 15:00:00 17.4 5 Noroeste 15 Oeste 0 -- -- 50
2019-04-02 14:00:00 16.9 6 Noroeste 14 Oeste 0 -- -- 51
2019-04-02 13:00:00 16.5 5 Sudoeste 13 Oeste 0 -- -- 56
2019-04-02 12:00:00 15.1 5 Sudoeste 15 Sur 0 -- -- 62
2019-04-02 11:00:00 13.9 7 Sudeste 16 Sudeste 0 -- -- 73
2019-04-02 10:00:00 12.3 5 Sur 10 Sudeste 0 -- -- 82
2019-04-02 09:00:00 9.6 5 Sudeste 7 Sudeste 0 -- -- 89
2019-04-02 08:00:00 9.5 3 Sudeste 6 Sudeste 0 -- -- 88
2019-04-02 07:00:00 9.5 3 Sur 8 Sudeste 0 -- -- 88
2019-04-02 06:00:00 9.5 7 Sudeste 9 Sudeste 0 -- -- 88
2019-04-02 05:00:00 9.9 0 Calma 3 Sur 0 -- -- 82
2019-04-02 04:00:00 10.6 0 Calma 9 Sudeste 0 -- -- 80
2019-04-02 03:00:00 10.4 5 Sudeste 9 Sudeste 0 -- -- 84
2019-04-02 02:00:00 10.5 6 Sudeste 9 Sudeste 0 -- -- 83
2019-04-02 01:00:00 11.3 2 Este 6 Sur 0 -- -- 78
2019-04-02 00:00:00 11.8 6 Norte 12 Norte 0 -- -- 77
2019-04-01 23:00:00 11.4 4 Sudeste 11 Sudoeste 0 -- -- 76
2019-04-01 22:00:00 11.6 8 Oeste 12 Oeste 0 -- -- 82
2019-04-01 21:00:00 12.4 4 Sudoeste 23 Sudoeste 0 -- -- 79
2019-04-01 20:00:00 14.2 10 Sur 21 Sudoeste 0 -- -- 68
2019-04-01 19:00:00 14.9 4 Este 17 Nordeste 0 -- -- 58
2019-04-01 18:00:00 14.2 14 Nordeste 24 Nordeste 0 -- -- 60
2019-04-01 17:00:00 13.7 16 Este 30 Este 0 -- -- 61
2019-04-01 16:00:00 10.4 9 Nordeste 32 Sudoeste 20.8 -- -- 79
2019-04-01 15:00:00 16.2 6 Nordeste 17 Nordeste 0 -- -- 54
2019-04-01 14:00:00 15.4 5 Nordeste 13 Nordeste 0 -- -- 61
2019-04-01 13:00:00 14.7 4 Noroeste 14 Norte 0 -- -- 63
2019-04-01 12:00:00 13.7 4 Norte 10 Noroeste 0 -- -- 78
2019-04-01 11:00:00 13.6 3 Oeste 12 Oeste 0 -- -- 78
2019-04-01 10:00:00 12.5 6 Sudeste 13 Sudeste 0 -- -- 83
2019-04-01 09:00:00 11.6 9 Sudeste 13 Sudeste 0 -- -- 86
2019-04-01 08:00:00 11.4 9 Sudeste 14 Sudeste 0 -- -- 87
2019-04-01 07:00:00 11.4 7 Sudeste 14 Sudeste 0 -- -- 85
2019-04-01 06:00:00 11.6 7 Sudeste 13 Sudeste 0 -- -- 84
2019-04-01 05:00:00 11.7 10 Sudeste 17 Sudeste 0 -- -- 82
2019-04-01 04:00:00 11.9 8 Sudeste 18 Sudeste 0 -- -- 80
2019-04-01 03:00:00 11.7 13 Sudeste 21 Sudeste 0 -- -- 81
2019-04-01 02:00:00 12 15 Sudeste 21 Sudeste 0 -- -- 77
2019-04-01 01:00:00 13 12 Este 24 Este 0 -- -- 66
2019-04-01 00:00:00 13.1 10 Este 17 Este 0 -- -- 67
2019-03-31 23:00:00 13.1 11 Sudeste 17 Sudeste 0 -- -- 69
2019-03-31 22:00:00 12.9 9 Sudeste 13 Sudeste 0 -- -- 70
2019-03-31 21:00:00 13.5 4 Sur 19 Sudoeste 0 -- -- 68
2019-03-31 20:00:00 14.9 14 Sudoeste 19 Sudoeste 0 -- -- 64
2019-03-31 19:00:00 16.1 4 Nordeste 18 Norte 0 -- -- 50
2019-03-31 18:00:00 16.3 10 Norte 25 Nordeste 0 -- -- 58
2019-03-31 17:00:00 14.6 3 Oeste 9 Sudoeste 0 -- -- 69
2019-03-31 16:00:00 14.2 0 Calma 12 Sudeste 2.8 -- -- 79
2019-03-31 15:00:00 13.7 5 Sudeste 29 Sudeste 3.8 -- -- 77
2019-03-31 14:00:00 17.3 3 Sudoeste 13 Sudoeste 0 -- -- 49
2019-03-31 13:00:00 17.6 7 Oeste 14 Oeste 0 -- -- 50
2019-03-31 12:00:00 16.4 8 Sudoeste 15 Sudoeste 0 -- -- 56
2019-03-31 11:00:00 14.5 6 Sur 12 Sur 0 -- -- 64
2019-03-31 10:00:00 12.4 5 Sur 11 Este 0 -- -- 73
2019-03-31 09:00:00 11.1 3 Sudeste 8 Sudeste 0 -- -- 77
2019-03-31 08:00:00 11.1 3 Sur 13 Sudeste 0 -- -- 76
2019-03-31 07:00:00 11.7 5 Sur 21 Sudeste 0 -- -- 72
2019-03-31 06:00:00 12 15 Sudeste 25 Sudeste 0 -- -- 68
2019-03-31 05:00:00 12.1 17 Sudeste 25 Sudeste 0 -- -- 68
2019-03-31 03:00:00 13.6 9 Sur 17 Sudeste 0 -- -- 57
2019-03-31 01:00:00 14.6 5 Sudeste 14 Sudeste 0 -- -- 50
2019-03-31 00:00:00 14.9 6 Sur 24 Este 0 -- -- 48
2019-03-30 23:00:00 15 11 Este 22 Sudeste 0 -- -- 49
2019-03-30 22:00:00 15.3 15 Sudeste 22 Sudeste 0 -- -- 48
2019-03-30 21:00:00 17.1 13 Sudeste 24 Sudeste 0 -- -- 40
2019-03-30 20:00:00 18.7 12 Sudeste 26 Sudeste 0 -- -- 35
2019-03-30 19:00:00 20.7 7 Norte 13 Nordeste 0 -- -- 28
2019-03-30 18:00:00 20.8 4 Nordeste 24 Norte 0 -- -- 27
2019-03-30 17:00:00 21.2 7 Sudeste 22 Este 0 -- -- 27
2019-03-30 16:00:00 21.1 8 Este 21 Este 0 -- -- 27
2019-03-30 15:00:00 20.4 9 Este 24 Sudeste 0 -- -- 29
2019-03-30 14:00:00 19.8 10 Sudeste 27 Sudeste 0 -- -- 30
2019-03-30 13:00:00 19 13 Sudeste 25 Este 0 -- -- 32
2019-03-30 12:00:00 17.1 6 Este 19 Este 0 -- -- 37
2019-03-30 11:00:00 16.9 6 Sur 24 Nordeste 0 -- -- 42
2019-03-30 10:00:00 14.8 3 Norte 16 Este 0 -- -- 50
2019-03-30 09:00:00 12.6 10 Sudeste 19 Este 0 -- -- 58
2019-03-30 08:00:00 10.5 16 Sudeste 24 Sudeste 0 -- -- 68
2019-03-30 07:00:00 10.4 3 Sudeste 22 Sudeste 0 -- -- 67
2019-03-30 06:00:00 10.5 14 Sudeste 31 Sudeste 0 -- -- 67
2019-03-30 05:00:00 11 19 Sudeste 29 Sudeste 0 -- -- 61
2019-03-30 04:00:00 11.4 22 Sudeste 33 Sudeste 0 -- -- 57
2019-03-30 03:00:00 11.9 15 Sudeste 26 Sudeste 0 -- -- 50
2019-03-30 02:00:00 12.5 13 Sudeste 21 Sudeste 0 -- -- 47
2019-03-30 01:00:00 13 14 Sudeste 21 Sudeste 0 -- -- 42
2019-03-30 00:00:00 14.8 12 Sudeste 15 Sudeste 0 -- -- 35
2019-03-29 23:00:00 14.4 8 Sudeste 14 Sudeste 0 -- -- 36
2019-03-29 22:00:00 15.2 7 Sudeste 12 Sudeste 0 -- -- 26
2019-03-29 21:00:00 16 7 Sudeste 12 Sudeste 0 -- -- 22
2019-03-29 20:00:00 17.2 6 Sudeste 13 Sur 0 -- -- 20
2019-03-29 19:00:00 19.7 8 Sur 21 Sudeste 0 -- -- 15
2019-03-29 18:00:00 20.7 12 Sur 22 Sudeste 0 -- -- 14
2019-03-29 17:00:00 21.5 9 Sur 27 Sur 0 -- -- 13
2019-03-29 16:00:00 20.7 6 Sudeste 22 Sudeste 0 -- -- 13
2019-03-29 15:00:00 19.7 10 Este 28 Sudeste 0 -- -- 15
2019-03-29 14:00:00 20.1 13 Sur 24 Sur 0 -- -- 15
2019-03-29 13:00:00 18 9 Sudeste 27 Sudeste 0 -- -- 17
2019-03-29 12:00:00 17.3 12 Sudeste 23 Sudeste 0 -- -- 18
2019-03-29 11:00:00 15.5 12 Sudeste 24 Sudeste 0 -- -- 22
2019-03-29 10:00:00 12.8 17 Sudeste 26 Sudeste 0 -- -- 23
2019-03-29 09:00:00 11 11 Sudeste 26 Sudeste 0 -- -- 30
2019-03-29 08:00:00 6.2 7 Sudeste 21 Sudeste 0 -- -- 43
2019-03-29 07:00:00 9.3 15 Sudeste 26 Sudeste 0 -- -- 30
2019-03-29 06:00:00 9.4 10 Sudeste 20 Sudeste 0 -- -- 34
2019-03-29 05:00:00 11.6 15 Este 29 Este 0 -- -- 32
2019-03-29 04:00:00 10.3 16 Sudeste 30 Sudeste 0 -- -- 38
2019-03-29 03:00:00 11.1 13 Sudeste 27 Sudeste 0 -- -- 36
2019-03-29 02:00:00 10.7 14 Sudeste 31 Sudeste 0 -- -- 34
2019-03-29 01:00:00 12 22 Sudeste 35 Sudeste 0 -- -- 27
2019-03-29 00:00:00 13.9 11 Sudeste 19 Sudeste 0 -- -- 17
2019-03-28 23:00:00 14.7 6 Nordeste 17 Este 0 -- -- 15
2019-03-28 22:00:00 15 6 Sudeste 12 Sur 0 -- -- 15
2019-03-28 21:00:00 15.7 9 Sudeste 16 Sudeste 0 -- -- 14
2019-03-28 20:00:00 17.4 6 Sudeste 15 Sur 0 -- -- 12
2019-03-28 19:00:00 19.9 12 Sur 29 Sudeste 0 -- -- 10
2019-03-28 18:00:00 21.3 13 Sur 29 Sudeste 0 -- -- 9
2019-03-28 17:00:00 20.5 8 Este 31 Este 0 -- -- 10
2019-03-28 16:00:00 20.3 13 Este 37 Sudeste 0 -- -- 9
2019-03-28 15:00:00 20.7 14 Sudeste 34 Sudeste 0 -- -- 10
2019-03-28 14:00:00 19.7 20 Sudeste 36 Sudeste 0 -- -- 12
2019-03-28 13:00:00 18 15 Sudeste 29 Sudeste 0 -- -- 20
2019-03-28 12:00:00 17.4 14 Sur 29 Sudeste 0 -- -- 25
2019-03-28 11:00:00 15.1 13 Sudeste 29 Sudeste 0 -- -- 25
2019-03-28 10:00:00 13.4 13 Sur 21 Sudeste 0 -- -- 35
2019-03-28 09:00:00 10.8 3 Norte 16 Sudeste 0 -- -- 49
2019-03-28 08:00:00 8.8 7 Sudeste 14 Sudeste 0 -- -- 62
2019-03-28 07:00:00 8.8 5 Este 11 Sudeste 0 -- -- 65
2019-03-28 06:00:00 9.2 4 Este 15 Sudeste 0 -- -- 61
2019-03-28 05:00:00 9.7 14 Sudeste 19 Sudeste 0 -- -- 59
2019-03-28 04:00:00 10.2 14 Este 28 Sudeste 0 -- -- 55
2019-03-28 03:00:00 10.4 20 Sudeste 32 Sudeste 0 -- -- 50
2019-03-28 02:00:00 11.2 21 Sudeste 31 Sudeste 0 -- -- 39
2019-03-28 01:00:00 12.7 22 Sudeste 32 Sudeste 0 -- -- 21
2019-03-28 00:00:00 15.3 14 Sudeste 30 Sudeste 0 -- -- 17
2019-03-27 23:00:00 15.4 19 Sudeste 31 Este 0 -- -- 15
2019-03-27 22:00:00 15.8 17 Este 39 Este 0 -- -- 14
2019-03-27 21:00:00 16.4 18 Este 35 Este 0 -- -- 13
2019-03-27 20:00:00 17 16 Sudeste 36 Sudeste 0 -- -- 11
2019-03-27 19:00:00 18.7 11 Sudeste 41 Este 0 -- -- 12
2019-03-27 18:00:00 19.5 9 Este 37 Sudeste 0 -- -- 14
2019-03-27 17:00:00 19.7 11 Sudeste 41 Este 0 -- -- 14
2019-03-27 16:00:00 19.4 18 Este 45 Este 0 -- -- 14
2019-03-27 15:00:00 19.3 14 Este 48 Sudeste 0 -- -- 14
2019-03-27 14:00:00 18.2 17 Este 36 Este 0 -- -- 16
2019-03-27 13:00:00 16.9 14 Este 33 Este 0 -- -- 20
2019-03-27 12:00:00 14.2 16 Este 32 Este 0 -- -- 28
2019-03-27 11:00:00 12.4 12 Este 29 Este 0 -- -- 37
2019-03-27 10:00:00 11.2 12 Este 26 Este 0 -- -- 44
2019-03-27 09:00:00 9.5 11 Este 24 Sudeste 0 -- -- 50
2019-03-27 08:00:00 6.7 3 Noroeste 32 Este 0 -- -- 59
2019-03-27 07:00:00 7.9 25 Este 34 Este 0 -- -- 56
2019-03-27 06:00:00 9.1 19 Este 32 Este 0 -- -- 51
2019-03-27 05:00:00 11.1 17 Este 26 Este 0 -- -- 39
2019-03-27 04:00:00 11.8 17 Este 28 Este 0 -- -- 39
2019-03-27 03:00:00 12.8 20 Este 36 Este 0 -- -- 41
2019-03-27 02:00:00 13.4 9 Este 22 Sudeste 0 -- -- 44
2019-03-27 01:00:00 14.7 14 Sudeste 35 Sudeste 0 -- -- 40
2019-03-27 00:00:00 16.3 24 Sudeste 38 Sudeste 0 -- -- 34